Time;durP1;ratioP1;P1;durP2;ratioP2;P2;SDS_P1;SDS_P2;PMS_P1;PMS_P2;Temp;Humidity;BMP_temperature;BMP_pressure;BME280_temperature;BME280_humidity;BME280_pressure;Samples;Min_cycle;Max_cycle;Signal;HPM_P1;HPM_P2
2022/11/07 00:02:10;;;;;;;8.13;4.47;;;10.10;99.90;;;;;;5021053;28;20049;-68
2022/11/07 00:04:36;;;;;;;8.32;5.90;;;9.90;99.90;;;;;;5021596;28;20038;-68
2022/11/07 00:07:03;;;;;;;8.68;4.95;;;10.00;99.90;;;;;;5022395;28;20041;-68
2022/11/07 00:09:29;;;;;;;7.72;5.75;;;10.10;99.90;;;;;;5021141;28;20049;-68
2022/11/07 00:11:55;;;;;;;11.10;6.78;;;10.00;99.90;;;;;;5022345;28;20128;-68
2022/11/07 00:14:21;;;;;;;9.43;5.22;;;10.10;99.90;;;;;;5021671;28;20116;-68
2022/11/07 00:16:48;;;;;;;8.15;5.90;;;10.20;99.90;;;;;;5002827;28;20635;-68
2022/11/07 00:19:17;;;;;;;6.32;4.90;;;10.10;99.90;;;;;;5021223;28;20484;-67
2022/11/07 00:21:43;;;;;;;10.25;6.18;;;10.10;99.90;;;;;;5021428;28;20041;-68
2022/11/07 00:24:09;;;;;;;8.48;5.72;;;10.40;99.90;;;;;;4988005;28;20081;-69
2022/11/07 00:26:36;;;;;;;8.15;4.95;;;10.30;99.90;;;;;;5020897;28;20041;-68
2022/11/07 00:29:03;;;;;;;6.18;3.90;;;10.40;99.90;;;;;;5004040;28;20466;-68
2022/11/07 00:31:29;;;;;;;9.82;5.50;;;10.40;99.90;;;;;;5019814;28;20091;-68
2022/11/07 00:33:56;;;;;;;9.23;5.80;;;10.40;99.90;;;;;;4987319;28;20080;-68
2022/11/07 00:36:27;;;;;;;8.45;5.65;;;10.30;99.90;;;;;;5020506;28;20041;-68
2022/11/07 00:38:53;;;;;;;8.50;4.82;;;10.40;99.90;;;;;;5021509;28;20046;-68
2022/11/07 00:41:19;;;;;;;6.82;3.88;;;10.60;99.90;;;;;;5020936;28;20042;-69
2022/11/07 00:43:45;;;;;;;8.60;4.78;;;10.40;99.90;;;;;;5020186;28;20049;-68
2022/11/07 00:46:12;;;;;;;9.82;5.72;;;10.60;99.90;;;;;;5020724;28;20046;-68
2022/11/07 00:48:38;;;;;;;10.98;5.43;;;10.70;99.90;;;;;;5020828;28;20052;-68
2022/11/07 00:51:13;;;;;;;9.38;5.70;;;10.50;99.90;;;;;;5003215;28;20051;-68
2022/11/07 00:53:39;;;;;;;7.75;5.22;;;10.70;99.90;;;;;;5021656;28;20044;-68
2022/11/07 00:56:07;;;;;;;8.98;4.18;;;10.70;99.90;;;;;;5021978;28;20504;-67
2022/11/07 00:58:34;;;;;;;10.80;5.80;;;10.80;99.90;;;;;;5003990;28;20689;-68
2022/11/07 01:01:06;;;;;;;8.90;5.00;;;10.60;99.90;;;;;;5020143;28;20080;-68
2022/11/07 01:06:16;;;;;;;9.13;5.03;;;10.60;99.90;;;;;;5020779;28;20627;-68
2022/11/07 01:08:42;;;;;;;14.73;5.38;;;10.80;99.90;;;;;;5021632;28;20045;-68
2022/11/07 01:11:08;;;;;;;11.85;5.00;;;10.80;99.90;;;;;;5021747;28;20041;-68
2022/11/07 01:13:34;;;;;;;8.40;5.50;;;10.90;99.90;;;;;;5003809;28;20068;-68
2022/11/07 01:16:00;;;;;;;7.57;4.90;;;10.80;99.90;;;;;;5020404;28;20115;-68
2022/11/07 01:18:26;;;;;;;10.70;4.72;;;10.90;99.90;;;;;;5004014;28;20049;-68
2022/11/07 01:20:52;;;;;;;6.13;3.90;;;10.80;99.90;;;;;;5021094;28;20053;-68
2022/11/07 01:23:18;;;;;;;10.23;4.55;;;10.80;99.90;;;;;;5021467;28;20115;-68
2022/11/07 01:25:44;;;;;;;7.60;4.65;;;10.80;99.90;;;;;;5003617;28;20627;-68
2022/11/07 01:28:10;;;;;;;9.48;5.05;;;10.70;99.90;;;;;;5023632;28;20053;-68
2022/11/07 01:30:43;;;;;;;9.02;5.03;;;10.90;99.90;;;;;;5006482;28;20041;-68
2022/11/07 01:33:09;;;;;;;7.30;4.20;;;10.80;99.90;;;;;;5007000;28;20144;-68
2022/11/07 01:35:36;;;;;;;8.10;4.50;;;11.00;99.90;;;;;;5025787;28;20046;-68
2022/11/07 01:38:02;;;;;;;7.80;4.10;;;10.90;99.90;;;;;;5008009;28;20053;-68
2022/11/07 01:40:28;;;;;;;12.77;4.60;;;10.90;99.90;;;;;;5025177;28;20049;-68
2022/11/07 01:42:54;;;;;;;8.25;4.80;;;10.70;99.90;;;;;;5006714;28;20052;-68
2022/11/07 01:45:28;;;;;;;10.32;3.97;;;10.80;99.90;;;;;;5006268;28;20054;-68
2022/11/07 01:47:57;;;;;;;9.32;4.68;;;11.00;99.90;;;;;;5025329;28;20049;-68
2022/11/07 01:50:23;;;;;;;9.60;4.70;;;11.00;99.90;;;;;;5024428;28;20064;-68
2022/11/07 01:52:50;;;;;;;10.30;4.60;;;10.80;99.90;;;;;;5007109;28;20673;-68
2022/11/07 01:55:20;;;;;;;9.20;4.68;;;10.90;99.90;;;;;;5007404;28;20075;-68
2022/11/07 01:57:58;;;;;;;8.65;3.63;;;10.90;99.90;;;;;;5006125;28;20085;-68
2022/11/07 02:00:24;;;;;;;8.18;4.25;;;10.90;99.90;;;;;;5006325;28;20565;-68
2022/11/07 02:02:58;;;;;;;8.13;3.83;;;11.00;99.90;;;;;;5024681;28;20045;-68
2022/11/07 02:05:33;;;;;;;7.80;3.22;;;11.10;99.90;;;;;;4989932;28;20045;-68
2022/11/07 02:07:59;;;;;;;;;;;11.00;99.90;;;;;;5024407;28;20466;-68
2022/11/07 02:10:26;;;;;;;13.65;5.18;;;11.00;99.90;;;;;;5096361;23;19919;-71
2022/11/07 02:12:52;;;;;;;9.45;3.72;;;11.10;99.90;;;;;;4995562;28;20041;-68
2022/11/07 02:15:18;;;;;;;11.73;4.15;;;11.00;99.90;;;;;;5003508;28;20092;-68
2022/11/07 02:17:44;;;;;;;10.65;4.22;;;11.10;99.90;;;;;;5002452;28;20141;-68
2022/11/07 02:20:10;;;;;;;8.10;4.30;;;11.00;99.90;;;;;;5003082;28;20624;-68
2022/11/07 02:22:45;;;;;;;7.47;4.05;;;10.90;99.90;;;;;;4985880;28;20053;-68
2022/11/07 02:25:17;;;;;;;10.82;3.85;;;11.10;99.90;;;;;;5002539;28;20053;-68
2022/11/07 02:27:44;;;;;;;7.53;3.80;;;10.90;99.90;;;;;;5003726;28;20042;-68
2022/11/07 02:30:15;;;;;;;7.85;4.05;;;11.00;99.90;;;;;;5003856;28;20061;-68
2022/11/07 02:32:41;;;;;;;9.35;3.85;;;11.00;99.90;;;;;;5003330;28;20706;-69
2022/11/07 02:35:40;;;;;;;8.70;4.10;;;11.00;99.90;;;;;;5002675;28;20105;-68
2022/11/07 02:38:13;;;;;;;8.45;4.00;;;11.10;99.90;;;;;;4985794;28;20041;-68
2022/11/07 02:40:39;;;;;;;9.30;4.28;;;10.80;99.90;;;;;;4984593;28;20125;-68
2022/11/07 02:43:08;;;;;;;9.60;4.63;;;10.80;99.90;;;;;;5002956;28;20044;-69
2022/11/07 02:45:36;;;;;;;7.63;3.20;;;10.90;99.90;;;;;;5002375;28;20049;-68
2022/11/07 02:48:02;;;;;;;5.57;3.33;;;10.90;99.90;;;;;;4984994;28;20054;-69
2022/11/07 02:50:28;;;;;;;10.70;4.63;;;10.80;99.90;;;;;;4987069;28;20092;-68
2022/11/07 02:52:54;;;;;;;10.05;4.05;;;10.90;99.90;;;;;;5002956;28;20042;-69
2022/11/07 02:55:19;;;;;;;5.28;2.83;;;11.00;99.90;;;;;;5003585;28;20041;-69
2022/11/07 02:57:45;;;;;;;10.18;4.20;;;11.00;99.90;;;;;;5002536;28;20061;-69
2022/11/07 03:00:13;;;;;;;11.30;4.32;;;10.80;99.90;;;;;;4985251;28;20049;-70
2022/11/07 03:02:38;;;;;;;14.00;5.22;;;11.00;99.90;;;;;;4985829;28;20046;-69
2022/11/07 03:05:05;;;;;;;14.77;5.43;;;10.90;99.90;;;;;;5002536;28;20041;-69
2022/11/07 03:07:31;;;;;;;9.43;4.70;;;10.70;99.90;;;;;;5004054;28;20077;-69
2022/11/07 03:09:56;;;;;;;9.60;4.85;;;10.60;99.90;;;;;;4986431;28;20104;-69
2022/11/07 03:12:22;;;;;;;9.73;4.30;;;10.90;99.90;;;;;;5002455;28;20115;-69
2022/11/07 03:14:48;;;;;;;13.07;5.40;;;10.70;99.90;;;;;;5001353;28;20052;-69
2022/11/07 03:17:13;;;;;;;11.50;5.10;;;10.90;99.90;;;;;;5002857;28;20038;-69
2022/11/07 03:19:39;;;;;;;12.05;4.25;;;10.70;99.90;;;;;;5002512;28;20038;-69
2022/11/07 03:22:05;;;;;;;10.43;4.43;;;10.90;99.90;;;;;;5001294;28;20133;-69
2022/11/07 03:24:31;;;;;;;10.63;4.50;;;10.80;99.90;;;;;;5001808;28;20168;-70
2022/11/07 03:26:57;;;;;;;9.27;4.15;;;11.10;99.90;;;;;;4985607;28;20652;-69
2022/11/07 03:29:23;;;;;;;7.05;4.00;;;10.80;99.90;;;;;;4984005;28;20085;-69
2022/11/07 03:31:48;;;;;;;9.00;4.03;;;11.10;99.90;;;;;;5002441;28;20165;-68
2022/11/07 03:34:14;;;;;;;9.30;4.90;;;10.90;99.90;;;;;;5000967;28;20056;-68
2022/11/07 03:36:40;;;;;;;9.45;4.07;;;10.80;99.90;;;;;;5002796;28;20042;-69
2022/11/07 03:39:05;;;;;;;12.38;5.20;;;10.90;99.90;;;;;;5002936;28;20050;-68
2022/11/07 03:41:31;;;;;;;8.18;4.15;;;10.90;99.90;;;;;;5000958;28;20077;-68
2022/11/07 03:43:57;;;;;;;9.43;4.50;;;10.70;99.90;;;;;;5002243;28;20050;-69
2022/11/07 03:46:22;;;;;;;10.00;4.47;;;10.70;99.90;;;;;;5001240;28;20065;-68
2022/11/07 03:48:48;;;;;;;10.30;5.00;;;10.80;99.90;;;;;;5000634;28;20046;-69
2022/11/07 03:51:13;;;;;;;12.98;4.68;;;10.90;99.90;;;;;;4982960;28;20120;-68
2022/11/07 03:53:39;;;;;;;11.85;4.60;;;10.90;99.90;;;;;;5000866;28;20077;-68
2022/11/07 03:56:09;;;;;;;10.85;5.45;;;10.80;99.90;;;;;;4984184;28;20056;-69
2022/11/07 03:58:35;;;;;;;10.38;4.18;;;10.90;99.90;;;;;;5001823;28;20048;-68
2022/11/07 04:01:02;;;;;;;10.93;4.18;;;10.90;99.90;;;;;;5001093;28;20058;-69
2022/11/07 04:03:28;;;;;;;8.38;4.40;;;11.00;99.90;;;;;;5002993;28;20067;-68
2022/11/07 04:05:53;;;;;;;11.82;4.78;;;10.80;99.90;;;;;;5001624;28;20068;-69
2022/11/07 04:08:19;;;;;;;9.70;4.25;;;10.70;99.90;;;;;;5001397;28;20552;-68
2022/11/07 04:10:45;;;;;;;9.48;4.40;;;10.80;99.90;;;;;;5001898;28;20050;-69
2022/11/07 04:18:39;;;;;;;14.50;4.85;;;10.80;99.90;;;;;;5001875;28;20057;-69
2022/11/07 04:21:05;;;;;;;7.85;3.65;;;10.80;99.90;;;;;;5001884;28;20054;-69
2022/11/07 04:23:31;;;;;;;10.13;4.40;;;10.90;99.90;;;;;;5000716;28;20053;-69
2022/11/07 04:28:41;;;;;;;11.90;4.67;;;10.70;99.90;;;;;;5001308;28;20145;-69
2022/11/07 04:31:06;;;;;;;14.07;4.60;;;10.90;99.90;;;;;;4999632;28;20648;-69
2022/11/07 04:33:32;;;;;;;12.98;5.03;;;10.90;99.90;;;;;;5001195;28;20100;-68
2022/11/07 04:35:58;;;;;;;10.73;4.57;;;10.90;99.90;;;;;;4999600;28;20069;-69
2022/11/07 04:38:23;;;;;;;9.07;4.60;;;10.90;99.90;;;;;;5000852;28;20133;-68
2022/11/07 04:40:56;;;;;;;15.45;4.80;;;10.80;99.90;;;;;;5001180;28;20050;-68
2022/11/07 04:43:24;;;;;;;14.10;5.15;;;10.70;99.90;;;;;;4984005;28;20057;-69
2022/11/07 04:45:49;;;;;;;9.52;4.43;;;10.70;99.90;;;;;;4999448;28;20085;-69
2022/11/07 04:48:16;;;;;;;11.35;4.60;;;10.80;99.90;;;;;;4984282;28;20081;-69
2022/11/07 04:50:43;;;;;;;15.80;5.40;;;10.60;99.90;;;;;;5001438;28;20108;-69
2022/11/07 04:53:16;;;;;;;11.02;4.78;;;10.60;99.90;;;;;;5000795;28;20034;-69
2022/11/07 04:55:43;;;;;;;11.88;5.10;;;10.50;99.90;;;;;;5000450;28;20144;-69
2022/11/07 04:58:09;;;;;;;9.30;4.22;;;10.80;99.90;;;;;;5001936;28;20390;-68
2022/11/07 05:00:35;;;;;;;10.85;4.55;;;10.60;99.90;;;;;;5001480;28;20345;-69
2022/11/07 05:03:01;;;;;;;12.95;4.70;;;10.60;99.90;;;;;;5000898;28;20049;-68
2022/11/07 05:05:27;;;;;;;11.60;4.53;;;10.80;99.90;;;;;;5003017;28;20556;-69
2022/11/07 05:07:53;;;;;;;8.70;3.90;;;10.60;99.90;;;;;;5004739;28;20050;-68
2022/11/07 05:10:22;;;;;;;10.02;4.43;;;10.60;99.90;;;;;;5005755;28;20092;-69
2022/11/07 05:12:48;;;;;;;12.20;5.03;;;10.70;99.90;;;;;;5004208;28;20052;-68
2022/11/07 05:15:14;;;;;;;12.38;4.82;;;10.50;99.90;;;;;;5004651;28;20121;-69
2022/11/07 05:17:40;;;;;;;13.40;4.63;;;10.60;99.90;;;;;;5004890;28;20533;-69
2022/11/07 05:20:06;;;;;;;12.30;4.78;;;10.80;99.90;;;;;;4986798;28;20092;-68
2022/11/07 05:25:16;;;;;;;11.57;4.75;;;10.80;99.90;;;;;;5005879;28;20137;-69
2022/11/07 05:27:42;;;;;;;11.68;4.72;;;10.80;99.90;;;;;;5004644;28;20120;-69
2022/11/07 05:30:10;;;;;;;10.40;4.63;;;10.60;99.90;;;;;;5005094;28;20042;-69
2022/11/07 05:32:40;;;;;;;12.73;4.70;;;10.70;99.90;;;;;;4987458;28;20049;-68
2022/11/07 05:35:06;;;;;;;14.35;5.22;;;10.70;99.90;;;;;;4987804;28;20125;-69
2022/11/07 05:37:32;;;;;;;10.45;4.80;;;10.80;99.90;;;;;;4988833;28;20042;-68
2022/11/07 05:39:57;;;;;;;16.92;5.75;;;10.80;99.90;;;;;;5004245;28;20100;-69
2022/11/07 05:42:23;;;;;;;14.40;5.35;;;10.80;99.90;;;;;;5003225;28;20404;-68
2022/11/07 05:44:48;;;;;;;10.23;4.47;;;10.80;99.90;;;;;;5001596;28;20042;-68
2022/11/07 05:47:14;;;;;;;15.65;5.20;;;10.80;99.90;;;;;;5003064;28;20053;-69
2022/11/07 05:49:40;;;;;;;13.38;5.57;;;10.80;99.90;;;;;;5003856;28;20038;-68
2022/11/07 05:52:05;;;;;;;12.02;5.28;;;10.80;99.90;;;;;;5004792;28;20046;-68
2022/11/07 05:54:32;;;;;;;12.75;4.85;;;10.90;99.90;;;;;;5002638;28;20053;-68
2022/11/07 05:56:58;;;;;;;15.60;5.07;;;10.80;99.90;;;;;;5003625;28;20134;-69
2022/11/07 05:59:24;;;;;;;13.85;5.43;;;10.90;99.90;;;;;;5002220;28;20684;-68
2022/11/07 06:01:50;;;;;;;13.52;4.82;;;10.80;99.90;;;;;;4986226;28;20056;-68
2022/11/07 06:04:16;;;;;;;12.50;5.90;;;10.80;99.90;;;;;;5004037;28;20046;-69
2022/11/07 06:06:42;;;;;;;10.63;4.97;;;10.70;99.90;;;;;;5003832;28;20057;-69
2022/11/07 06:09:07;;;;;;;15.43;5.38;;;10.60;99.90;;;;;;5003187;28;20069;-68
2022/11/07 06:11:33;;;;;;;12.15;5.40;;;10.70;99.90;;;;;;5003238;28;20089;-68
2022/11/07 06:13:58;;;;;;;15.05;5.60;;;10.80;99.90;;;;;;5002635;28;20042;-68
2022/11/07 06:16:25;;;;;;;12.60;6.10;;;10.70;99.90;;;;;;5003007;28;20515;-68
2022/11/07 06:18:51;;;;;;;11.13;4.88;;;10.70;99.90;;;;;;5004415;28;20088;-68
2022/11/07 06:21:16;;;;;;;15.32;6.05;;;10.80;99.90;;;;;;5001554;28;20073;-68
2022/11/07 06:23:42;;;;;;;13.20;6.03;;;10.60;99.90;;;;;;5003784;28;20038;-69
2022/11/07 06:26:09;;;;;;;9.65;5.82;;;10.70;99.90;;;;;;4987203;28;20524;-69
2022/11/07 06:28:35;;;;;;;14.20;5.45;;;10.70;99.90;;;;;;5003732;28;20397;-68
2022/11/07 06:31:02;;;;;;;10.52;5.53;;;10.90;99.90;;;;;;4985272;28;20069;-69
2022/11/07 06:33:28;;;;;;;11.98;5.68;;;10.80;99.90;;;;;;5002337;28;20089;-68
2022/11/07 06:35:54;;;;;;;11.65;5.60;;;10.90;99.90;;;;;;5002654;28;20041;-68
2022/11/07 06:38:20;;;;;;;11.80;5.53;;;10.80;99.90;;;;;;5002857;28;20049;-69
2022/11/07 06:40:46;;;;;;;13.15;5.40;;;10.80;99.90;;;;;;4985584;28;20117;-68
2022/11/07 06:43:14;;;;;;;12.68;4.90;;;10.70;99.90;;;;;;4985878;28;20511;-69
2022/11/07 06:45:41;;;;;;;13.98;5.40;;;10.80;99.90;;;;;;5003806;28;20041;-68
2022/11/07 06:48:07;;;;;;;13.32;5.45;;;10.70;99.90;;;;;;5003144;28;20405;-68
2022/11/07 06:50:33;;;;;;;10.77;5.45;;;10.70;99.90;;;;;;5002834;28;20046;-69
2022/11/07 06:53:05;;;;;;;15.10;5.03;;;10.60;99.90;;;;;;4984775;28;20080;-68
2022/11/07 06:55:33;;;;;;;15.27;5.60;;;10.60;99.90;;;;;;5001850;28;20081;-68
2022/11/07 06:57:59;;;;;;;11.15;5.28;;;10.80;99.90;;;;;;5003213;28;20088;-68
2022/11/07 07:00:30;;;;;;;11.20;5.10;;;10.80;99.90;;;;;;4969096;28;20093;-68
2022/11/07 07:02:55;;;;;;;10.88;4.97;;;10.80;99.90;;;;;;5001976;28;20045;-68
2022/11/07 07:05:21;;;;;;;9.43;4.45;;;10.70;99.90;;;;;;5002785;28;20048;-68
2022/11/07 07:07:47;;;;;;;11.35;5.22;;;10.80;99.90;;;;;;4984765;28;20046;-68
2022/11/07 07:10:13;;;;;;;15.10;5.70;;;10.70;99.90;;;;;;5002619;28;20452;-69
2022/11/07 07:12:39;;;;;;;14.25;5.28;;;10.90;99.90;;;;;;5004051;28;20562;-68
2022/11/07 07:15:06;;;;;;;11.05;5.30;;;10.80;99.90;;;;;;5002462;28;20057;-68
2022/11/07 07:17:31;;;;;;;11.95;4.97;;;10.80;99.90;;;;;;5003272;28;20405;-69
2022/11/07 07:19:57;;;;;;;8.73;4.72;;;10.80;99.90;;;;;;4985783;28;20061;-68
2022/11/07 07:22:23;;;;;;;11.38;5.50;;;10.80;99.90;;;;;;5001586;28;20045;-66
2022/11/07 07:24:50;;;;;;;8.77;4.10;;;10.70;99.90;;;;;;5001820;28;20509;-69
2022/11/07 07:27:19;;;;;;;13.05;6.30;;;10.60;99.90;;;;;;4985643;28;20054;-70
2022/11/07 07:29:46;;;;;;;15.05;6.20;;;10.70;99.90;;;;;;5002061;28;20180;-69
2022/11/07 07:32:11;;;;;;;15.65;7.05;;;10.40;99.90;;;;;;5002804;28;20113;-70
2022/11/07 07:34:37;;;;;;;14.68;6.38;;;10.60;99.90;;;;;;5003396;28;20124;-68
2022/11/07 07:37:03;;;;;;;10.50;5.95;;;10.40;99.90;;;;;;5002717;28;20053;-70
2022/11/07 07:39:29;;;;;;;15.20;7.22;;;10.60;99.90;;;;;;4984799;28;20057;-70
2022/11/07 07:41:55;;;;;;;15.88;8.55;;;10.50;99.90;;;;;;5002933;28;20408;-69
2022/11/07 07:44:21;;;;;;;13.38;6.43;;;10.50;99.90;;;;;;5002081;28;20045;-68
2022/11/07 07:46:47;;;;;;;16.58;8.13;;;10.60;99.90;;;;;;4984092;28;20052;-67
2022/11/07 07:49:12;;;;;;;17.63;8.57;;;10.60;99.90;;;;;;4984777;28;20054;-70
2022/11/07 07:51:38;;;;;;;16.13;9.13;;;10.60;99.90;;;;;;5000800;28;20044;-69
2022/11/07 07:54:04;;;;;;;15.48;8.48;;;10.70;99.90;;;;;;4984681;28;20108;-71
2022/11/07 07:56:29;;;;;;;18.67;9.10;;;10.70;99.90;;;;;;4984406;28;20049;-72
2022/11/07 07:58:55;;;;;;;11.98;6.47;;;10.50;99.90;;;;;;4983320;28;20567;-69
2022/11/07 08:01:20;;;;;;;20.67;8.77;;;10.50;99.90;;;;;;4984411;28;20516;-70
2022/11/07 08:03:46;;;;;;;16.67;8.82;;;10.60;99.90;;;;;;5002133;28;20045;-70
2022/11/07 08:06:12;;;;;;;17.00;8.18;;;10.50;99.90;;;;;;4986717;28;20033;-70
2022/11/07 08:08:37;;;;;;;17.42;8.10;;;10.60;99.90;;;;;;5003061;28;20053;-60
2022/11/07 08:11:07;;;;;;;16.83;8.02;;;10.70;99.90;;;;;;5001918;28;20045;-68
2022/11/07 08:13:33;;;;;;;15.90;7.57;;;10.80;99.90;;;;;;4993483;28;20076;-68
2022/11/07 08:16:02;;;;;;;18.00;7.78;;;10.80;99.90;;;;;;4999994;28;20038;-68
2022/11/07 08:18:28;;;;;;;16.83;7.85;;;10.60;99.90;;;;;;4984344;28;20126;-69
2022/11/07 08:20:55;;;;;;;14.23;7.07;;;10.90;99.90;;;;;;5001374;28;20467;-70
2022/11/07 08:23:21;;;;;;;17.73;7.55;;;10.90;99.90;;;;;;5002333;28;20435;-70
2022/11/07 08:25:52;;;;;;;16.40;8.13;;;10.70;99.90;;;;;;5001482;28;20065;-70
2022/11/07 08:28:23;;;;;;;14.10;6.35;;;10.80;99.90;;;;;;5001474;28;20053;-69
2022/11/07 08:31:06;;;;;;;11.18;5.53;;;10.90;99.90;;;;;;5000018;28;20053;-69
2022/11/07 08:33:33;;;;;;;16.00;7.60;;;10.90;99.90;;;;;;4981435;28;20050;-70
2022/11/07 08:36:00;;;;;;;14.73;7.10;;;10.70;99.90;;;;;;4964611;28;20129;-70
2022/11/07 08:38:27;;;;;;;16.67;7.35;;;10.80;99.90;;;;;;4980864;28;20042;-71
2022/11/07 08:40:52;;;;;;;17.75;7.20;;;10.90;99.90;;;;;;4980736;28;20051;-70
2022/11/07 08:43:19;;;;;;;14.82;7.80;;;10.90;99.90;;;;;;4963537;28;20055;-70
2022/11/07 08:45:46;;;;;;;20.45;8.82;;;11.00;99.90;;;;;;4966199;28;20141;-69
2022/11/07 08:48:12;;;;;;;15.35;6.95;;;10.80;99.90;;;;;;4981927;28;20066;-70
2022/11/07 08:50:38;;;;;;;13.23;5.95;;;10.90;99.90;;;;;;4981871;28;20373;-70
2022/11/07 08:53:04;;;;;;;18.50;8.00;;;11.00;99.90;;;;;;4979951;28;20463;-70
2022/11/07 08:55:30;;;;;;;22.52;7.35;;;11.10;99.90;;;;;;4981189;28;20069;-67
2022/11/07 08:58:00;;;;;;;18.20;7.75;;;10.90;99.90;;;;;;4980126;28;20046;-70
2022/11/07 09:00:25;;;;;;;15.75;6.20;;;11.10;99.90;;;;;;4980387;28;20145;-68
2022/11/07 09:02:51;;;;;;;12.60;6.60;;;11.10;99.90;;;;;;4981631;28;20121;-70
2022/11/07 09:05:17;;;;;;;16.85;7.20;;;10.90;99.90;;;;;;4991607;28;20435;-69
2022/11/07 09:07:42;;;;;;;15.65;5.95;;;11.10;99.90;;;;;;5001044;28;20038;-70
2022/11/07 09:10:10;;;;;;;17.13;6.68;;;11.20;99.90;;;;;;4984853;28;20111;-69
2022/11/07 09:12:42;;;;;;;19.13;7.45;;;11.00;99.90;;;;;;4983850;28;20054;-70
2022/11/07 09:15:08;;;;;;;18.20;6.88;;;11.20;99.90;;;;;;5000260;28;20056;-71
2022/11/07 09:17:34;;;;;;;14.23;5.55;;;11.10;99.90;;;;;;4983167;28;20046;-71
2022/11/07 09:20:00;;;;;;;17.33;6.30;;;11.30;99.90;;;;;;5001076;28;20115;-70
2022/11/07 09:22:25;;;;;;;14.98;5.50;;;11.40;99.90;;;;;;4982431;28;20124;-70
2022/11/07 09:24:51;;;;;;;19.05;6.13;;;11.20;99.90;;;;;;4982354;28;20079;-71
2022/11/07 09:27:17;;;;;;;14.40;5.70;;;11.20;99.90;;;;;;5001474;28;20042;-65
2022/11/07 09:29:42;;;;;;;8.05;3.28;;;11.30;99.90;;;;;;4999570;28;20073;-64
2022/11/07 09:32:08;;;;;;;10.30;4.90;;;11.50;99.90;;;;;;4982554;28;20046;-64
2022/11/07 09:34:33;;;;;;;12.20;4.93;;;11.60;99.90;;;;;;4983723;28;20485;-66
2022/11/07 09:37:01;;;;;;;7.00;3.60;;;11.40;99.90;;;;;;5000993;28;20045;-64
2022/11/07 09:39:27;;;;;;;12.13;5.32;;;11.60;99.90;;;;;;4983743;28;20096;-64
2022/11/07 09:42:22;;;;;;;7.55;3.65;;;11.80;99.90;;;;;;5000431;28;20041;-64
2022/11/07 09:44:55;;;;;;;11.20;5.15;;;11.70;99.90;;;;;;4981264;28;20510;-64
2022/11/07 09:47:43;;;;;;;13.77;5.55;;;11.60;99.90;;;;;;4983989;28;20448;-65
2022/11/07 09:50:24;;;;;;;11.88;4.50;;;11.50;99.90;;;;;;4986860;28;20180;-64
2022/11/07 09:53:11;;;;;;;10.35;4.70;;;11.70;99.90;;;;;;4986603;28;20088;-65
2022/11/07 09:55:41;;;;;;;15.75;5.13;;;11.80;99.90;;;;;;4987747;28;20053;-64
2022/11/07 09:58:36;;;;;;;12.88;4.72;;;11.60;99.90;;;;;;5004636;28;20046;-64
2022/11/07 10:01:10;;;;;;;12.50;5.15;;;11.80;99.90;;;;;;4968287;28;20058;-66
2022/11/07 10:03:38;;;;;;;15.05;5.22;;;11.60;99.90;;;;;;5005369;28;20041;-65
2022/11/07 10:06:18;;;;;;;15.15;5.28;;;11.80;99.90;;;;;;5003122;28;20448;-64
2022/11/07 10:08:50;;;;;;;11.85;4.03;;;11.80;99.90;;;;;;4992572;28;20050;-64
2022/11/07 10:11:39;;;;;;;9.73;4.75;;;11.80;99.90;;;;;;5004320;28;20060;-64
2022/11/07 10:14:22;;;;;;;14.32;4.57;;;11.70;99.90;;;;;;5002056;28;20050;-63
2022/11/07 10:17:06;;;;;;;12.55;4.53;;;11.60;99.90;;;;;;5004123;28;20404;-63
2022/11/07 10:19:45;;;;;;;5.88;2.70;;;11.90;99.90;;;;;;5002948;28;20065;-64
2022/11/07 10:22:26;;;;;;;12.75;5.20;;;11.70;99.90;;;;;;5004570;28;20128;-67
2022/11/07 10:25:14;;;;;;;15.98;4.93;;;11.80;99.90;;;;;;5003251;28;20140;-64
2022/11/07 10:27:40;;;;;;;14.07;5.20;;;11.80;99.90;;;;;;4986924;28;20162;-65
2022/11/07 10:30:18;;;;;;;10.55;3.58;;;11.80;99.90;;;;;;5002146;28;20811;-65
2022/11/07 10:32:57;;;;;;;14.18;5.85;;;11.80;99.90;;;;;;4986051;28;20077;-65
2022/11/07 10:35:30;;;;;;;17.58;5.47;;;11.90;99.90;;;;;;4985554;28;20107;-65
2022/11/07 10:38:13;;;;;;;14.02;4.63;;;11.90;99.90;;;;;;5003073;28;20041;-65
2022/11/07 10:40:41;;;;;;;16.85;5.22;;;11.70;99.90;;;;;;5003924;28;20528;-66
2022/11/07 10:43:14;;;;;;;12.43;4.63;;;11.90;99.90;;;;;;4983963;28;20046;-67
2022/11/07 10:45:40;;;;;;;11.13;4.72;;;11.80;99.90;;;;;;5004480;28;20116;-65
2022/11/07 10:48:06;;;;;;;12.52;4.85;;;12.00;99.90;;;;;;4987318;28;20125;-65
2022/11/07 10:50:32;;;;;;;14.30;5.03;;;12.00;99.90;;;;;;4986230;28;20141;-65
2022/11/07 10:53:08;;;;;;;15.32;4.63;;;12.10;99.90;;;;;;5003368;28;20038;-62
2022/11/07 10:55:46;;;;;;;12.82;4.97;;;12.00;99.90;;;;;;5003389;28;20695;-63
2022/11/07 10:58:17;;;;;;;15.00;4.03;;;12.10;99.90;;;;;;4984885;28;20140;-63
2022/11/07 11:00:54;;;;;;;11.45;4.32;;;12.20;99.90;;;;;;5002968;28;20381;-64
2022/11/07 11:03:32;;;;;;;10.43;3.85;;;12.20;99.90;;;;;;5003769;28;20049;-64
2022/11/07 11:06:10;;;;;;;13.10;4.63;;;12.20;99.90;;;;;;4986234;28;20189;-63
2022/11/07 11:08:37;;;;;;;9.45;4.03;;;12.10;99.90;;;;;;4983551;28;20422;-64
2022/11/07 11:11:24;;;;;;;10.90;4.10;;;12.10;99.90;;;;;;4983491;28;20085;-64
2022/11/07 11:14:00;;;;;;;13.77;4.75;;;12.30;99.90;;;;;;4983692;28;20129;-64
2022/11/07 11:16:29;;;;;;;10.57;3.75;;;12.10;99.90;;;;;;4966421;28;20042;-64
2022/11/07 11:18:58;;;;;;;14.35;4.88;;;12.20;99.90;;;;;;4983716;28;20050;-61
2022/11/07 11:21:24;;;;;;;16.02;4.78;;;12.20;99.90;;;;;;4967322;28;20042;-62
2022/11/07 11:23:51;;;;;;;13.65;4.28;;;12.30;99.90;;;;;;4983257;28;20081;-62
2022/11/07 11:26:38;;;;;;;19.25;6.03;;;12.20;99.90;;;;;;4984453;28;20046;-62
2022/11/07 11:29:05;;;;;;;14.88;5.00;;;12.40;99.90;;;;;;4982307;28;20051;-62
2022/11/07 11:31:51;;;;;;;8.52;4.03;;;12.40;99.90;;;;;;4966622;28;20185;-61
2022/11/07 11:34:56;;;;;;;14.98;4.97;;;12.50;99.90;;;;;;4983013;28;20054;-62
2022/11/07 11:37:26;;;;;;;10.33;4.57;;;12.30;99.90;;;;;;4983360;28;20108;-61
2022/11/07 11:39:57;;;;;;;11.18;4.68;;;12.40;99.90;;;;;;4964661;28;20112;-62
2022/11/07 11:42:44;;;;;;;16.45;5.00;;;12.40;99.90;;;;;;4983036;28;20509;-64
2022/11/07 11:45:38;;;;;;;14.15;4.75;;;12.60;99.90;;;;;;4982070;28;20469;-62
2022/11/07 11:48:26;;;;;;;14.35;4.22;;;12.60;99.90;;;;;;4936353;28;20066;-62
2022/11/07 11:50:57;;;;;;;12.93;4.28;;;12.70;99.90;;;;;;4983012;28;20193;-62
2022/11/07 11:53:22;;;;;;;12.88;4.70;;;13.00;99.90;;;;;;4983766;28;20050;-63
2022/11/07 11:56:06;;;;;;;10.90;4.03;;;12.80;99.90;;;;;;4982959;28;20047;-63
2022/11/07 11:59:14;;;;;;;11.82;3.75;;;12.90;99.90;;;;;;4983173;28;20073;-63
2022/11/07 12:01:43;;;;;;;11.43;4.45;;;13.10;99.90;;;;;;4983460;28;20054;-63
2022/11/07 12:04:39;;;;;;;12.50;3.80;;;13.00;99.90;;;;;;4952074;28;20043;-63
2022/11/07 12:07:27;;;;;;;12.43;3.90;;;13.00;99.90;;;;;;5000038;28;20049;-63
2022/11/07 12:10:09;;;;;;;11.40;3.70;;;12.90;99.90;;;;;;5000606;28;20081;-63
2022/11/07 12:12:53;;;;;;;14.55;4.75;;;12.90;99.90;;;;;;4984715;28;20465;-63
2022/11/07 12:15:36;;;;;;;9.75;3.70;;;13.10;99.90;;;;;;5002757;28;20061;-63
2022/11/07 12:18:15;;;;;;;13.25;4.72;;;13.10;99.90;;;;;;5003167;28;20034;-63
2022/11/07 12:20:50;;;;;;;12.77;4.15;;;13.10;99.90;;;;;;5002707;28;20148;-64
2022/11/07 12:23:24;;;;;;;12.00;3.75;;;13.20;99.90;;;;;;5003069;28;20089;-63
2022/11/07 12:26:00;;;;;;;13.95;3.47;;;13.00;99.90;;;;;;5001826;28;20208;-63
2022/11/07 12:28:29;;;;;;;13.35;3.75;;;13.30;99.90;;;;;;5001369;28;20192;-63
2022/11/07 12:31:25;;;;;;;10.25;3.70;;;13.20;99.90;;;;;;5002288;28;20077;-63
2022/11/07 12:34:15;;;;;;;11.70;3.55;;;13.30;99.90;;;;;;5002491;28;20255;-63
2022/11/07 12:37:03;;;;;;;12.27;3.38;;;13.40;99.90;;;;;;5001853;28;20054;-64
2022/11/07 12:40:03;;;;;;;9.18;2.80;;;13.50;99.90;;;;;;5001972;28;20129;-63
2022/11/07 12:42:43;;;;;;;10.23;3.53;;;13.50;99.90;;;;;;5002274;28;20050;-63
2022/11/07 12:45:27;;;;;;;9.65;2.88;;;13.50;99.90;;;;;;5001817;28;20481;-66
2022/11/07 12:48:05;;;;;;;9.50;3.63;;;13.60;99.90;;;;;;5000609;28;20052;-63
2022/11/07 12:50:45;;;;;;;9.88;3.65;;;13.40;99.90;;;;;;5001089;28;20054;-63
2022/11/07 12:53:41;;;;;;;9.27;3.63;;;13.60;99.90;;;;;;4985150;28;20546;-64
2022/11/07 12:56:09;;;;;;;12.15;3.97;;;13.60;99.90;;;;;;5001092;28;20046;-63
2022/11/07 12:58:39;;;;;;;14.85;5.90;;;13.60;99.90;;;;;;5000736;28;20096;-63
2022/11/07 13:01:06;;;;;;;11.07;3.97;;;13.60;99.90;;;;;;5001072;28;20050;-63
2022/11/07 13:03:50;;;;;;;13.30;3.92;;;13.60;99.90;;;;;;5000341;28;20050;-63
2022/11/07 13:06:40;;;;;;;8.05;3.38;;;13.60;99.90;;;;;;4999342;28;20444;-67
2022/11/07 13:09:24;;;;;;;9.65;3.53;;;13.70;99.90;;;;;;5000770;28;20046;-63